Time;durP1;ratioP1;P1;durP2;ratioP2;P2;SDS_P1;SDS_P2;PMS_P1;PMS_P2;Temp;Humidity;BMP_temperature;BMP_pressure;BME280_temperature;BME280_humidity;BME280_pressure;Samples;Min_cycle;Max_cycle;Signal;HPM_P1;HPM_P2
2022/06/14 00:00:59;;;;;;;6.00;3.23;;;14.80;99.90;;;;;;5032354;28;20263;-91
2022/06/14 00:03:39;;;;;;;3.70;2.90;;;14.70;99.90;;;;;;5032285;28;20189;-91
2022/06/14 00:06:25;;;;;;;4.23;2.70;;;14.80;99.90;;;;;;5032044;28;20182;-91
2022/06/14 00:08:52;;;;;;;5.37;2.93;;;14.80;99.90;;;;;;5032136;28;20186;-91
2022/06/14 00:11:22;;;;;;;7.33;2.90;;;14.80;99.90;;;;;;4999425;28;20210;-91
2022/06/14 00:13:48;;;;;;;5.33;3.03;;;14.80;99.90;;;;;;5032096;28;20289;-91
2022/06/14 00:16:16;;;;;;;3.97;3.03;;;14.80;99.90;;;;;;5031821;28;20233;-92
2022/06/14 00:18:42;;;;;;;4.20;3.00;;;14.70;99.90;;;;;;5031839;28;20207;-91
2022/06/14 00:21:08;;;;;;;5.13;3.50;;;14.60;99.90;;;;;;5031669;28;20199;-91
2022/06/14 00:23:35;;;;;;;4.67;3.10;;;14.50;99.90;;;;;;5032029;28;20179;-91
2022/06/14 00:26:02;;;;;;;3.53;2.90;;;14.50;99.90;;;;;;5031820;28;20183;-91
2022/06/14 00:28:31;;;;;;;8.43;3.07;;;14.50;99.90;;;;;;5031928;28;20182;-91
2022/06/14 00:31:07;;;;;;;4.17;2.93;;;14.50;99.90;;;;;;5031399;28;20210;-91
2022/06/14 00:33:33;;;;;;;4.10;3.10;;;14.50;99.90;;;;;;5031856;28;20265;-91
2022/06/14 00:36:06;;;;;;;5.73;3.27;;;14.50;99.90;;;;;;5030795;28;20260;-91
2022/06/14 00:38:33;;;;;;;5.10;3.13;;;14.50;99.90;;;;;;5031820;28;20182;-91
2022/06/14 00:41:00;;;;;;;4.20;2.87;;;14.50;99.90;;;;;;4998609;28;20206;-91
2022/06/14 00:43:28;;;;;;;4.00;3.10;;;14.50;99.90;;;;;;5017863;28;20260;-91
2022/06/14 00:46:11;;;;;;;5.00;2.90;;;14.40;99.90;;;;;;5018449;28;20189;-91
2022/06/14 00:48:37;;;;;;;4.30;2.77;;;14.40;99.90;;;;;;5018447;28;20173;-91
2022/06/14 00:51:25;;;;;;;6.23;3.47;;;14.30;99.90;;;;;;5018077;28;20235;-91
2022/06/14 00:54:00;;;;;;;6.13;3.50;;;14.20;99.90;;;;;;5018289;28;20250;-91
2022/06/14 00:57:04;;;;;;;6.43;3.00;;;14.10;99.90;;;;;;5034653;28;20205;-91
2022/06/14 00:59:45;;;;;;;4.17;2.90;;;14.10;99.90;;;;;;5034306;28;20184;-91
2022/06/14 01:02:22;;;;;;;4.50;3.30;;;14.00;99.90;;;;;;5017670;28;20200;-91
2022/06/14 01:04:48;;;;;;;7.03;3.23;;;13.90;99.90;;;;;;5018095;28;20177;-91
2022/06/14 01:07:24;;;;;;;5.80;3.33;;;13.90;99.90;;;;;;5017797;28;20188;-90
2022/06/14 01:09:55;;;;;;;5.50;2.77;;;13.90;99.90;;;;;;5018524;28;20188;-91
2022/06/14 01:12:26;;;;;;;6.10;3.00;;;13.80;99.90;;;;;;5018222;28;20208;-91
2022/06/14 01:15:12;;;;;;;4.43;3.20;;;13.80;99.90;;;;;;5018718;28;20177;-91
2022/06/14 01:17:46;;;;;;;4.73;3.37;;;13.70;99.90;;;;;;5019182;28;20176;-90
2022/06/14 01:20:15;;;;;;;4.83;3.10;;;13.70;99.90;;;;;;5019014;28;20676;-90
2022/06/14 01:22:42;;;;;;;7.00;3.97;;;13.50;99.90;;;;;;5019060;28;20204;-90
2022/06/14 01:25:09;;;;;;;5.37;3.40;;;13.40;99.90;;;;;;5018973;28;20177;-91
2022/06/14 01:27:38;;;;;;;5.87;3.30;;;13.30;99.90;;;;;;5017553;28;20188;-91
2022/06/14 01:30:13;;;;;;;4.00;3.30;;;13.30;99.90;;;;;;5017502;28;20177;-91
2022/06/14 01:33:06;;;;;;;4.13;3.03;;;13.30;99.90;;;;;;5017641;28;20206;-90
2022/06/14 01:35:36;;;;;;;4.60;2.97;;;13.30;99.90;;;;;;5017184;28;20209;-91
2022/06/14 01:38:07;;;;;;;5.17;3.37;;;13.20;99.90;;;;;;5017767;28;20179;-91
2022/06/14 01:40:59;;;;;;;3.50;3.20;;;13.20;99.90;;;;;;5017365;28;20180;-90
2022/06/14 01:43:57;;;;;;;4.83;3.00;;;13.10;99.90;;;;;;5017397;28;20267;-91
2022/06/14 01:46:44;;;;;;;3.53;3.23;;;13.10;99.90;;;;;;4996367;28;20196;-91
2022/06/14 01:52:08;;;;;;;5.03;3.43;;;13.00;99.90;;;;;;5033632;28;20215;-91
2022/06/14 01:54:43;;;;;;;6.87;3.10;;;13.00;99.90;;;;;;5017411;28;20195;-91
2022/06/14 01:57:50;;;;;;;5.53;3.60;;;13.00;99.90;;;;;;5017152;28;20220;-91
2022/06/14 02:00:29;;;;;;;4.00;3.60;;;12.90;99.90;;;;;;5028711;28;20181;-91
2022/06/14 02:06:42;;;;;;;5.03;3.57;;;12.90;99.90;;;;;;5049835;28;20182;-90
2022/06/14 02:09:24;;;;;;;3.90;3.30;;;12.90;99.90;;;;;;5017396;28;20178;-91
2022/06/14 02:11:50;;;;;;;4.13;3.33;;;12.80;99.90;;;;;;5016779;28;20235;-90
2022/06/14 02:14:40;;;;;;;3.70;3.20;;;12.80;99.90;;;;;;5016778;28;20179;-92
2022/06/14 02:17:26;;;;;;;5.10;3.13;;;12.90;99.90;;;;;;5016484;28;20223;-91
2022/06/14 02:20:00;;;;;;;3.73;3.30;;;12.80;99.90;;;;;;5016801;28;20173;-91
2022/06/14 02:22:39;;;;;;;5.20;3.60;;;12.80;99.90;;;;;;5016767;28;20203;-91
2022/06/14 02:25:16;;;;;;;8.60;3.53;;;12.80;99.90;;;;;;5018194;28;20190;-91
2022/06/14 02:27:58;;;;;;;5.23;3.70;;;12.70;99.90;;;;;;5029499;28;20214;-91
2022/06/14 02:30:32;;;;;;;6.77;3.47;;;12.70;99.90;;;;;;4996779;28;20185;-90
2022/06/14 02:33:13;;;;;;;4.37;3.13;;;12.80;99.90;;;;;;5029921;28;20250;-90
2022/06/14 02:35:57;;;;;;;6.10;3.10;;;12.80;99.90;;;;;;4996935;28;20287;-91
2022/06/14 02:38:54;;;;;;;5.03;3.03;;;12.90;99.90;;;;;;4996837;28;20188;-91
2022/06/14 02:41:27;;;;;;;3.63;3.10;;;12.90;99.90;;;;;;5011632;28;20237;-91
2022/06/14 02:44:09;;;;;;;6.07;3.47;;;12.90;99.90;;;;;;4996778;28;20205;-90
2022/06/14 02:46:42;;;;;;;4.37;3.23;;;12.90;99.90;;;;;;4996948;28;20181;-91
2022/06/14 02:49:32;;;;;;;6.63;3.33;;;12.90;99.90;;;;;;4996861;28;20169;-91
2022/06/14 02:52:14;;;;;;;3.63;3.13;;;12.90;99.90;;;;;;5016356;28;20209;-90
2022/06/14 02:54:58;;;;;;;4.27;3.20;;;12.80;99.90;;;;;;5014255;28;20281;-91
2022/06/14 02:57:36;;;;;;;4.40;3.70;;;12.80;99.90;;;;;;5013968;28;20278;-90
2022/06/14 03:00:08;;;;;;;4.10;3.67;;;12.70;99.90;;;;;;5016558;28;20203;-90
2022/06/14 03:02:42;;;;;;;4.60;3.63;;;12.70;99.90;;;;;;5033408;28;20206;-90
2022/06/14 03:05:16;;;;;;;5.57;3.40;;;12.80;99.90;;;;;;5020226;28;20278;-91
2022/06/14 03:07:52;;;;;;;4.27;3.60;;;12.80;99.90;;;;;;5019799;28;20180;-92
2022/06/14 03:10:18;;;;;;;4.87;3.10;;;12.70;99.90;;;;;;5019991;28;20163;-90
2022/06/14 03:13:03;;;;;;;5.30;3.60;;;12.60;99.90;;;;;;5019402;28;20671;-91
2022/06/14 03:15:45;;;;;;;3.90;3.43;;;12.50;99.90;;;;;;5019462;28;20232;-91
2022/06/14 03:18:49;;;;;;;3.97;3.20;;;12.40;99.90;;;;;;5019920;28;20176;-91
2022/06/14 03:21:25;;;;;;;4.00;3.30;;;12.30;99.90;;;;;;5024089;28;20205;-91
2022/06/14 03:24:06;;;;;;;6.90;3.87;;;12.20;99.90;;;;;;5019489;28;20247;-91
2022/06/14 03:27:15;;;;;;;5.83;4.07;;;12.10;99.90;;;;;;5016278;28;20333;-91
2022/06/14 03:29:47;;;;;;;4.00;3.60;;;12.00;99.90;;;;;;5000100;28;20184;-91
2022/06/14 03:32:20;;;;;;;5.93;4.00;;;12.00;99.90;;;;;;5016394;28;20202;-91
2022/06/14 03:34:51;;;;;;;4.20;3.27;;;12.00;99.90;;;;;;5033024;28;20293;-91
2022/06/14 03:37:18;;;;;;;5.67;4.10;;;12.00;99.90;;;;;;5033016;28;20205;-90
2022/06/14 03:39:50;;;;;;;9.27;3.83;;;11.90;99.90;;;;;;5016103;28;20184;-92
2022/06/14 03:42:16;;;;;;;7.30;4.07;;;11.90;99.90;;;;;;5019400;28;20197;-90
2022/06/14 03:44:43;;;;;;;6.20;3.73;;;11.90;99.90;;;;;;5035729;28;20201;-91
2022/06/14 03:47:09;;;;;;;5.80;4.03;;;11.90;99.90;;;;;;5035624;28;20255;-91
2022/06/14 03:50:02;;;;;;;6.67;3.73;;;11.90;99.90;;;;;;5035562;28;20295;-91
2022/06/14 03:52:30;;;;;;;5.60;4.13;;;11.90;99.90;;;;;;5036212;28;20296;-91
2022/06/14 03:55:07;;;;;;;4.97;3.67;;;11.90;99.90;;;;;;5018998;28;20195;-91
2022/06/14 03:58:21;;;;;;;4.77;4.13;;;12.00;99.90;;;;;;5019252;28;20188;-90
2022/06/14 04:00:56;;;;;;;8.40;4.37;;;12.00;99.90;;;;;;4991365;28;20186;-91
2022/06/14 04:03:47;;;;;;;5.27;3.77;;;12.00;99.90;;;;;;5009968;28;20181;-91
2022/06/14 04:06:47;;;;;;;6.23;3.47;;;11.90;99.90;;;;;;5018909;28;20181;-90
2022/06/14 04:09:13;;;;;;;4.50;3.37;;;12.00;99.90;;;;;;5018944;28;20178;-90
2022/06/14 04:12:07;;;;;;;4.90;3.63;;;11.90;99.90;;;;;;5034704;28;20205;-90
2022/06/14 04:14:50;;;;;;;5.07;3.57;;;12.00;99.90;;;;;;5018760;28;20180;-90
2022/06/14 04:17:38;;;;;;;6.17;3.70;;;12.00;99.90;;;;;;5018761;28;20202;-90
2022/06/14 04:20:28;;;;;;;7.00;4.27;;;12.00;99.90;;;;;;5018424;28;20650;-91
2022/06/14 04:23:19;;;;;;;6.73;3.60;;;12.00;99.90;;;;;;5018668;28;20190;-91
2022/06/14 04:26:00;;;;;;;4.63;3.53;;;12.00;99.90;;;;;;5019007;28;20178;-90
2022/06/14 04:28:38;;;;;;;4.77;3.33;;;12.00;99.90;;;;;;5018743;28;20184;-90
2022/06/14 04:31:13;;;;;;;6.27;4.20;;;12.00;99.90;;;;;;5018377;28;20246;-91
2022/06/14 04:34:05;;;;;;;6.60;3.87;;;12.00;99.90;;;;;;5018347;28;20280;-90
2022/06/14 04:36:55;;;;;;;8.97;3.83;;;12.00;99.90;;;;;;5018276;28;20291;-91
2022/06/14 04:39:34;;;;;;;4.13;3.23;;;12.00;99.90;;;;;;5018740;28;20178;-90
2022/06/14 04:42:10;;;;;;;4.87;3.63;;;12.10;99.90;;;;;;5034595;28;20332;-90
2022/06/14 04:44:55;;;;;;;7.50;3.87;;;12.00;99.90;;;;;;5018292;28;20231;-91
2022/06/14 04:47:52;;;;;;;6.10;3.80;;;12.10;99.90;;;;;;5018659;28;20171;-91
2022/06/14 04:50:29;;;;;;;8.03;3.97;;;12.10;99.90;;;;;;5034352;28;20186;-91
2022/06/14 04:53:09;;;;;;;6.23;3.80;;;12.10;99.90;;;;;;5018728;28;20219;-90
2022/06/14 04:55:44;;;;;;;6.63;3.50;;;12.10;99.90;;;;;;5018716;28;20273;-91
2022/06/14 04:58:25;;;;;;;7.20;3.60;;;12.20;99.90;;;;;;5019457;28;20189;-90
2022/06/14 05:01:03;;;;;;;5.13;3.40;;;12.20;99.90;;;;;;5015719;28;20173;-90
2022/06/14 05:04:12;;;;;;;5.30;3.30;;;12.20;99.90;;;;;;5018996;28;20224;-90
2022/06/14 05:06:45;;;;;;;7.13;3.70;;;12.20;99.90;;;;;;5018329;28;20182;-90
2022/06/14 05:09:19;;;;;;;4.27;3.73;;;12.30;99.90;;;;;;5034260;28;20213;-90
2022/06/14 05:12:21;;;;;;;6.20;3.70;;;12.40;99.90;;;;;;5017718;28;20202;-91
2022/06/14 05:14:52;;;;;;;6.10;3.70;;;12.50;99.90;;;;;;5018029;28;20279;-90
2022/06/14 05:17:25;;;;;;;7.27;4.20;;;12.60;99.90;;;;;;5017491;28;20210;-90
2022/06/14 05:20:05;;;;;;;5.57;3.90;;;12.70;99.90;;;;;;5017517;28;20232;-90
2022/06/14 05:22:59;;;;;;;7.13;4.10;;;12.80;99.90;;;;;;5017134;28;20198;-91
2022/06/14 05:25:32;;;;;;;7.20;4.50;;;12.90;99.90;;;;;;5024447;28;20208;-90
2022/06/14 05:28:07;;;;;;;4.87;4.00;;;13.00;99.90;;;;;;5015805;28;20181;-91
2022/06/14 05:30:43;;;;;;;5.03;4.10;;;13.10;99.90;;;;;;5051897;28;20226;-91
2022/06/14 05:33:28;;;;;;;6.00;4.33;;;13.10;99.90;;;;;;5053948;28;20174;-90
2022/06/14 05:36:08;;;;;;;6.47;4.70;;;13.30;99.90;;;;;;5019712;28;20213;-91
2022/06/14 05:38:48;;;;;;;8.20;4.67;;;13.30;99.90;;;;;;5030463;28;20199;-90
2022/06/14 05:41:37;;;;;;;6.00;4.77;;;13.50;99.90;;;;;;5013590;28;20207;-90
2022/06/14 05:44:19;;;;;;;7.03;4.77;;;13.70;99.90;;;;;;5003075;28;20251;-91
2022/06/14 05:46:53;;;;;;;9.77;4.90;;;13.80;99.90;;;;;;5017029;28;20187;-90
2022/06/14 05:49:22;;;;;;;8.23;4.10;;;14.00;99.90;;;;;;5033237;28;20195;-90
2022/06/14 05:52:08;;;;;;;7.43;4.77;;;14.10;99.90;;;;;;5016578;28;20252;-90
2022/06/14 05:54:51;;;;;;;8.03;4.40;;;14.30;99.90;;;;;;5013245;28;20649;-91
2022/06/14 05:57:25;;;;;;;6.83;4.70;;;14.50;99.90;;;;;;4997374;28;20221;-90
2022/06/14 06:00:00;;;;;;;6.37;4.50;;;14.60;99.90;;;;;;5030021;28;20191;-91
2022/06/14 06:02:58;;;;;;;7.40;4.33;;;14.80;99.90;;;;;;5013647;28;20198;-90
2022/06/14 06:05:30;;;;;;;5.93;3.87;;;15.00;99.90;;;;;;4983636;28;20187;-91
2022/06/14 06:08:17;;;;;;;5.50;3.83;;;15.20;99.90;;;;;;5015607;28;20185;-89
2022/06/14 06:10:50;;;;;;;6.07;4.10;;;15.40;99.90;;;;;;5017386;28;20180;-89
2022/06/14 06:13:25;;;;;;;4.57;3.73;;;15.60;99.90;;;;;;5014478;28;20175;-89
2022/06/14 06:15:53;;;;;;;9.00;4.57;;;15.70;99.90;;;;;;5013819;28;20235;-90
2022/06/14 06:18:36;;;;;;;6.80;4.20;;;15.80;99.90;;;;;;5014385;28;20254;-89
2022/06/14 06:21:25;;;;;;;4.23;3.70;;;16.00;99.90;;;;;;5014034;28;20209;-90
2022/06/14 06:24:17;;;;;;;9.53;4.80;;;16.30;99.90;;;;;;5016666;28;20189;-90
2022/06/14 06:26:51;;;;;;;6.80;4.43;;;16.40;99.90;;;;;;5011474;28;20213;-90
2022/06/14 06:29:26;;;;;;;7.80;4.80;;;16.50;99.90;;;;;;5013461;28;20205;-91
2022/06/14 06:31:52;;;;;;;5.23;4.13;;;16.60;99.90;;;;;;5012678;28;20293;-90
2022/06/14 06:34:18;;;;;;;7.53;4.13;;;16.70;99.90;;;;;;5015630;28;20659;-91
2022/06/14 06:36:47;;;;;;;6.67;5.03;;;16.80;99.90;;;;;;5016735;28;20221;-90
2022/06/14 06:39:25;;;;;;;6.73;4.43;;;16.80;99.90;;;;;;5016888;28;20182;-91
2022/06/14 06:42:00;;;;;;;7.97;4.20;;;17.00;99.90;;;;;;5019331;28;20197;-90
2022/06/14 06:44:47;;;;;;;5.03;4.50;;;17.20;99.90;;;;;;5027268;28;20231;-90
2022/06/14 06:47:21;;;;;;;7.90;4.70;;;17.50;99.90;;;;;;5025227;28;20174;-90
2022/06/14 06:49:51;;;;;;;6.30;4.30;;;17.70;99.90;;;;;;5011913;28;20204;-90
2022/06/14 06:52:23;;;;;;;8.07;4.70;;;17.90;99.90;;;;;;5039630;28;20272;-90
2022/06/14 06:54:59;;;;;;;8.00;4.78;;;18.00;99.90;;;;;;5024561;28;20189;-91
2022/06/14 06:57:29;;;;;;;5.50;4.55;;;18.00;99.90;;;;;;5014605;28;20205;-90
2022/06/14 06:59:58;;;;;;;8.70;4.85;;;18.30;99.90;;;;;;5007941;28;20203;-90
2022/06/14 07:02:48;;;;;;;6.28;4.43;;;18.50;99.90;;;;;;5021702;28;20194;-90
2022/06/14 07:05:17;;;;;;;7.90;4.50;;;18.60;99.90;;;;;;5026787;28;20210;-91
2022/06/14 07:07:49;;;;;;;6.82;4.40;;;18.70;99.90;;;;;;5000265;28;20182;-91
2022/06/14 07:10:49;;;;;;;8.02;4.10;;;18.80;99.90;;;;;;5016554;28;20236;-91
2022/06/14 07:13:23;;;;;;;6.30;4.65;;;18.90;99.90;;;;;;5000915;28;20167;-90
2022/06/14 07:15:55;;;;;;;7.75;4.70;;;19.00;99.90;;;;;;5020772;28;20225;-91
2022/06/14 07:19:01;;;;;;;5.65;4.15;;;19.20;99.90;;;;;;5035788;28;20231;-90
2022/06/14 07:21:33;;;;;;;7.25;4.45;;;19.40;99.90;;;;;;4998154;28;20305;-91
2022/06/14 07:24:02;;;;;;;7.57;4.72;;;19.30;99.90;;;;;;5019323;28;20188;-91
2022/06/14 07:27:06;;;;;;;5.57;3.80;;;19.30;99.90;;;;;;5019396;28;20256;-90
2022/06/14 07:29:57;;;;;;;5.88;4.15;;;19.40;99.90;;;;;;5010268;28;20336;-91
2022/06/14 07:32:32;;;;;;;8.50;4.40;;;19.70;99.90;;;;;;5019057;28;20198;-91
2022/06/14 07:35:00;;;;;;;9.05;4.63;;;19.70;99.90;;;;;;5019417;28;20268;-91
2022/06/14 07:37:47;;;;;;;7.90;4.20;;;19.80;99.90;;;;;;5019168;28;20213;-91
2022/06/14 07:40:30;;;;;;;6.00;3.85;;;19.80;99.90;;;;;;5018863;28;20178;-91
2022/06/14 07:43:13;;;;;;;5.82;3.75;;;20.00;99.90;;;;;;5035850;28;20228;-91
2022/06/14 07:45:49;;;;;;;7.20;4.43;;;20.20;99.90;;;;;;5012703;28;20182;-91
2022/06/14 07:49:00;;;;;;;6.57;3.83;;;20.40;99.90;;;;;;5049302;28;20276;-91
2022/06/14 07:51:43;;;;;;;8.32;4.47;;;20.50;99.90;;;;;;4940206;28;20217;-91
2022/06/14 07:54:42;;;;;;;5.57;3.67;;;20.60;99.90;;;;;;4988936;28;20202;-91
2022/06/14 07:57:23;;;;;;;6.03;4.00;;;20.40;99.90;;;;;;5053575;28;20210;-91
2022/06/14 08:03:54;;;;;;;7.18;3.80;;;20.80;99.90;;;;;;5055689;28;20200;-91
2022/06/14 08:06:46;;;;;;;6.78;3.80;;;21.00;99.90;;;;;;5037643;28;20185;-91
2022/06/14 08:09:29;;;;;;;6.13;3.30;;;21.30;99.90;;;;;;5037658;28;20178;-91
2022/06/14 08:12:06;;;;;;;6.07;3.33;;;21.40;99.90;;;;;;5055315;28;20197;-91
2022/06/14 08:14:52;;;;;;;6.32;3.40;;;21.70;99.90;;;;;;5037234;28;20169;-91
2022/06/14 08:17:31;;;;;;;5.38;3.42;;;21.90;99.90;;;;;;5035176;28;20276;-92
2022/06/14 08:20:07;;;;;;;5.40;3.35;;;21.80;99.90;;;;;;5035262;28;20205;-91
2022/06/14 08:22:40;;;;;;;4.20;3.25;;;21.80;99.90;;;;;;5028857;28;20194;-92
2022/06/14 08:25:16;;;;;;;7.07;3.63;;;21.90;99.90;;;;;;5010204;28;20175;-92
2022/06/14 08:27:48;;;;;;;4.57;3.15;;;22.10;99.90;;;;;;4985272;28;20182;-91
2022/06/14 08:30:25;;;;;;;5.75;3.83;;;22.30;99.90;;;;;;5017332;28;20171;-91
2022/06/14 08:32:57;;;;;;;6.55;3.97;;;22.40;99.90;;;;;;5017589;28;20276;-91
2022/06/14 08:35:29;;;;;;;6.07;3.83;;;22.10;99.90;;;;;;5000792;28;20179;-91
2022/06/14 08:38:01;;;;;;;6.63;3.42;;;22.40;99.90;;;;;;5001249;28;20167;-91
2022/06/14 08:40:46;;;;;;;5.10;3.60;;;22.60;99.90;;;;;;5001009;28;20166;-91
2022/06/14 08:43:20;;;;;;;6.43;3.88;;;22.90;99.90;;;;;;5000937;28;20217;-92
2022/06/14 08:46:20;;;;;;;6.40;3.45;;;23.00;99.90;;;;;;5000185;28;20182;-91
2022/06/14 08:49:04;;;;;;;4.90;3.15;;;23.20;99.90;;;;;;5000623;28;20174;-91
2022/06/14 08:51:49;;;;;;;7.82;3.50;;;23.50;99.90;;;;;;5000558;28;20202;-91
2022/06/14 08:54:56;;;;;;;6.53;3.60;;;23.70;99.90;;;;;;5016903;28;20190;-91
2022/06/14 08:57:48;;;;;;;6.18;3.65;;;23.90;99.90;;;;;;5001447;28;20194;-88
2022/06/14 09:00:20;;;;;;;6.00;3.30;;;24.00;99.90;;;;;;5012781;28;20227;-91
2022/06/14 09:03:04;;;;;;;7.18;3.97;;;24.00;99.90;;;;;;5033294;28;20199;-90
2022/06/14 09:05:52;;;;;;;7.07;3.45;;;24.00;99.90;;;;;;5033347;28;20179;-91
2022/06/14 09:08:25;;;;;;;4.30;2.88;;;24.20;99.90;;;;;;5015696;28;20190;-91
2022/06/14 09:11:16;;;;;;;4.30;2.65;;;24.30;99.90;;;;;;5016271;28;20182;-91
2022/06/14 09:14:02;;;;;;;4.95;2.78;;;24.40;99.90;;;;;;5016815;28;20269;-91
2022/06/14 09:16:50;;;;;;;6.60;2.90;;;24.50;99.90;;;;;;5000288;28;20206;-92
2022/06/14 09:19:34;;;;;;;2.75;2.47;;;24.70;99.90;;;;;;5016753;28;20230;-91
2022/06/14 09:22:11;;;;;;;5.03;2.50;;;24.90;99.90;;;;;;5013916;28;20277;-92
2022/06/14 09:24:43;;;;;;;5.25;2.28;;;25.20;99.90;;;;;;5017059;28;20190;-89
2022/06/14 09:27:30;;;;;;;3.83;2.35;;;25.10;99.00;;;;;;5038948;28;20194;-88
2022/06/14 09:30:05;;;;;;;6.28;2.70;;;25.10;98.70;;;;;;5057465;28;20639;-91
2022/06/14 09:36:04;;;;;;;5.03;2.33;;;25.30;97.40;;;;;;5041174;28;20189;-88
2022/06/14 09:38:52;;;;;;;5.68;2.60;;;25.50;98.20;;;;;;5025783;28;20198;-91
2022/06/14 09:41:19;;;;;;;4.50;2.40;;;25.60;98.60;;;;;;5003608;28;20215;-92
2022/06/14 09:44:10;;;;;;;5.07;2.70;;;25.60;97.50;;;;;;5013479;28;20190;-91
2022/06/14 09:46:42;;;;;;;3.45;2.30;;;25.70;98.50;;;;;;5013668;28;20182;-91
2022/06/14 09:49:14;;;;;;;5.47;2.03;;;25.60;98.40;;;;;;5013250;28;20182;-91
2022/06/14 09:52:04;;;;;;;3.65;2.38;;;25.80;98.60;;;;;;5013499;28;20217;-91
2022/06/14 09:54:52;;;;;;;2.92;1.80;;;26.10;96.70;;;;;;5019350;28;20190;-91
2022/06/14 09:57:48;;;;;;;3.40;1.90;;;26.20;96.30;;;;;;5016839;28;20206;-91
2022/06/14 10:00:29;;;;;;;3.95;1.80;;;26.40;95.00;;;;;;5032996;28;20178;-91
2022/06/14 10:03:26;;;;;;;4.05;2.28;;;26.40;93.30;;;;;;5032917;28;20190;-90
2022/06/14 10:06:04;;;;;;;4.15;2.13;;;26.30;94.50;;;;;;5029048;28;20213;-91
2022/06/14 10:08:40;;;;;;;3.13;1.75;;;26.30;93.60;;;;;;5009473;28;20255;-91
2022/06/14 10:11:28;;;;;;;3.47;1.90;;;26.20;92.10;;;;;;4997004;28;20197;-91
2022/06/14 10:14:12;;;;;;;5.80;2.45;;;26.30;93.30;;;;;;5026602;28;20725;-91
2022/06/14 10:16:45;;;;;;;2.30;2.10;;;26.00;91.80;;;;;;5021723;28;20213;-91
2022/06/14 10:19:34;;;;;;;3.90;2.28;;;25.80;94.00;;;;;;5023701;28;20178;-91
2022/06/14 10:22:06;;;;;;;4.22;2.60;;;25.70;95.50;;;;;;5040683;28;20201;-91
2022/06/14 10:24:58;;;;;;;5.13;2.38;;;25.20;92.40;;;;;;5006044;28;20182;-91
2022/06/14 10:30:52;;;;;;;2.58;2.10;;;25.70;95.60;;;;;;5050985;28;20189;-91
2022/06/14 10:33:45;;;;;;;4.00;2.17;;;26.10;93.90;;;;;;5016638;28;20201;-91
2022/06/14 10:36:23;;;;;;;10.52;5.88;;;26.40;94.10;;;;;;5015110;28;20213;-91
2022/06/14 10:38:57;;;;;;;4.90;2.63;;;26.70;93.10;;;;;;5014830;28;20218;-91
2022/06/14 10:41:33;;;;;;;3.92;2.55;;;26.90;92.70;;;;;;5028513;28;20229;-91
2022/06/14 10:44:23;;;;;;;5.75;2.50;;;27.10;92.10;;;;;;5018084;28;20170;-91
2022/06/14 10:47:14;;;;;;;3.95;2.28;;;26.90;91.70;;;;;;5018504;28;20193;-91
2022/06/14 10:49:54;;;;;;;2.53;2.33;;;27.10;91.90;;;;;;5018523;28;20178;-91
2022/06/14 10:52:57;;;;;;;2.85;2.30;;;27.00;90.40;;;;;;5034901;28;20224;-91
2022/06/14 10:55:38;;;;;;;2.28;1.98;;;27.10;90.70;;;;;;5017791;28;20261;-91
2022/06/14 10:58:13;;;;;;;4.15;2.60;;;27.30;91.40;;;;;;5018074;28;20170;-91
2022/06/14 11:00:51;;;;;;;4.40;2.50;;;27.50;91.20;;;;;;5017924;28;20182;-92
2022/06/14 11:03:35;;;;;;;3.22;2.25;;;27.30;91.00;;;;;;5018187;28;20228;-91
2022/06/14 11:06:10;;;;;;;3.92;2.47;;;27.40;92.20;;;;;;5017827;28;20181;-91
2022/06/14 11:08:44;;;;;;;3.60;2.20;;;27.00;92.80;;;;;;5008617;28;20174;-91
2022/06/14 11:11:38;;;;;;;3.33;2.05;;;27.30;90.90;;;;;;4997776;28;20201;-91
2022/06/14 11:14:19;;;;;;;3.03;2.30;;;27.40;91.60;;;;;;4997906;28;20175;-91
2022/06/14 11:17:07;;;;;;;2.80;2.08;;;27.60;91.50;;;;;;5006395;28;20197;-91
2022/06/14 11:19:47;;;;;;;3.63;2.03;;;27.40;90.40;;;;;;5021255;28;20224;-91
2022/06/14 11:22:35;;;;;;;3.85;2.22;;;27.30;90.00;;;;;;5034616;28;20210;-91
2022/06/14 11:25:11;;;;;;;3.28;2.60;;;27.00;92.00;;;;;;5008086;28;20185;-92
2022/06/14 11:28:12;;;;;;;3.45;2.30;;;26.90;90.90;;;;;;5032164;28;20714;-91
2022/06/14 11:30:46;;;;;;;3.03;2.20;;;26.60;91.40;;;;;;5034843;28;20214;-91
2022/06/14 11:33:45;;;;;;;3.60;2.40;;;27.10;92.60;;;;;;5032551;28;20187;-91
2022/06/14 11:36:30;;;;;;;4.35;2.50;;;27.40;92.30;;;;;;5004171;28;20204;-92
2022/06/14 11:39:17;;;;;;;5.32;2.47;;;27.60;93.00;;;;;;5038350;28;20166;-92
2022/06/14 11:41:47;;;;;;;4.95;2.42;;;28.00;92.20;;;;;;5010955;28;20277;-91
2022/06/14 11:44:35;;;;;;;2.78;2.35;;;28.20;90.80;;;;;;5036086;28;20181;-92
2022/06/14 11:47:29;;;;;;;4.47;2.70;;;28.40;90.40;;;;;;5016327;28;20174;-92
2022/06/14 11:50:21;;;;;;;4.00;2.47;;;28.40;91.30;;;;;;4991573;28;20190;-92
2022/06/14 11:52:59;;;;;;;5.68;2.80;;;28.20;91.90;;;;;;5032473;28;20218;-92
2022/06/14 11:55:35;;;;;;;4.70;2.15;;;28.10;91.40;;;;;;5046151;28;20185;-93
2022/06/14 11:58:22;;;;;;;4.35;2.53;;;28.20;90.10;;;;;;5006634;28;20176;-93
2022/06/14 12:00:59;;;;;;;4.53;2.70;;;28.40;92.20;;;;;;5035655;28;20185;-92
2022/06/14 12:03:31;;;;;;;3.53;2.80;;;28.50;90.50;;;;;;5038143;28;20184;-92
2022/06/14 12:06:22;;;;;;;5.43;2.50;;;28.60;91.30;;;;;;5010645;28;20163;-93
2022/06/14 12:09:07;;;;;;;2.60;2.22;;;28.50;91.20;;;;;;5008728;28;20182;-92
2022/06/14 12:15:16;;;;;;;3.47;2.70;;;28.80;90.90;;;;;;5037386;28;20194;-92
2022/06/14 12:17:55;;;;;;;4.47;2.63;;;29.00;91.50;;;;;;5037544;28;20217;-92
2022/06/14 12:20:24;;;;;;;6.82;2.67;;;29.30;89.90;;;;;;5008619;28;20197;-92
2022/06/14 12:23:23;;;;;;;4.20;2.60;;;29.50;90.10;;;;;;5001250;28;20194;-92
2022/06/14 12:28:39;;;;;;;2.92;2.50;;;29.40;90.90;;;;;;5017296;28;20205;-92
2022/06/14 12:31:43;;;;;;;5.22;2.90;;;29.60;92.20;;;;;;5002562;28;20199;-84
2022/06/14 12:34:31;;;;;;;4.90;2.70;;;29.90;90.80;;;;;;5016264;28;20204;-79
2022/06/14 12:37:00;;;;;;;4.22;2.55;;;29.40;85.40;;;;;;5015862;28;20190;-81
2022/06/14 12:39:46;;;;;;;4.20;2.75;;;29.40;89.90;;;;;;5007828;28;20485;-79
2022/06/14 12:42:28;;;;;;;5.07;2.78;;;29.10;90.90;;;;;;5018739;28;20208;-82
2022/06/14 12:45:04;;;;;;;5.60;3.05;;;29.10;90.10;;;;;;5039288;28;20178;-78
2022/06/14 12:47:42;;;;;;;8.90;2.70;;;29.30;91.10;;;;;;5036151;28;20300;-80
2022/06/14 12:50:24;;;;;;;3.50;2.63;;;29.70;91.00;;;;;;5019609;28;20174;-76
2022/06/14 12:52:57;;;;;;;7.03;2.90;;;29.60;90.90;;;;;;5031740;28;20214;-77
2022/06/14 12:56:01;;;;;;;5.90;2.63;;;29.80;92.00;;;;;;5002279;28;20185;-76
2022/06/14 12:58:36;;;;;;;9.38;3.05;;;29.90;91.50;;;;;;4981347;28;20204;-92
2022/06/14 13:01:22;;;;;;;9.07;3.65;;;29.80;90.50;;;;;;5031554;28;20194;-77
2022/06/14 13:03:58;;;;;;;5.45;3.05;;;29.80;90.30;;;;;;5033434;28;20170;-94
2022/06/14 13:06:59;;;;;;;3.72;2.58;;;29.80;90.80;;;;;;5036832;28;20178;-94
2022/06/14 13:09:50;;;;;;;5.93;2.97;;;30.10;89.70;;;;;;5019964;28;20188;-94
2022/06/14 13:12:22;;;;;;;3.65;2.60;;;30.20;88.80;;;;;;5050847;28;20249;-87
2022/06/14 13:15:24;;;;;;;2.88;2.58;;;29.90;90.20;;;;;;5032937;28;20191;-85
2022/06/14 13:18:18;;;;;;;33.40;4.57;;;30.20;90.60;;;;;;4995795;28;20194;-82
2022/06/14 13:20:54;;;;;;;7.05;3.50;;;30.30;89.40;;;;;;5001528;28;20214;-89
2022/06/14 13:23:47;;;;;;;4.60;2.85;;;30.20;91.00;;;;;;5019563;28;20174;-84
2022/06/14 13:26:41;;;;;;;6.47;2.95;;;30.40;89.20;;;;;;5034866;28;20170;-85
2022/06/14 13:29:13;;;;;;;4.53;2.70;;;30.40;88.10;;;;;;5002838;28;20182;-86
2022/06/14 13:32:05;;;;;;;6.35;3.00;;;30.50;89.60;;;;;;4998430;28;20298;-88
2022/06/14 13:34:51;;;;;;;3.50;3.13;;;30.70;88.30;;;;;;5015893;28;20195;-83
2022/06/14 13:37:42;;;;;;;4.53;3.10;;;30.60;88.80;;;;;;4998508;28;20202;-88
2022/06/14 13:40:14;;;;;;;4.95;3.10;;;30.20;90.00;;;;;;4998556;28;20163;-84
2022/06/14 13:43:12;;;;;;;5.18;3.10;;;30.20;90.30;;;;;;4997645;28;20230;-84
2022/06/14 13:45:41;;;;;;;6.57;2.95;;;30.30;89.70;;;;;;4990826;28;20233;-79
2022/06/14 13:48:45;;;;;;;6.68;3.28;;;30.20;88.90;;;;;;5033488;28;20679;-80
2022/06/14 13:51:35;;;;;;;5.82;3.00;;;30.30;88.50;;;;;;5019462;28;20268;-79
2022/06/14 13:54:29;;;;;;;5.25;3.10;;;30.40;89.30;;;;;;5018670;28;20170;-78
2022/06/14 13:57:19;;;;;;;4.15;2.55;;;30.40;88.80;;;;;;5023865;28;20194;-78
2022/06/14 13:59:49;;;;;;;7.38;3.47;;;30.40;86.50;;;;;;5016500;28;20186;-77
2022/06/14 14:02:37;;;;;;;9.45;3.00;;;30.70;89.90;;;;;;5054929;22;20221;-33
2022/06/14 14:05:30;;;;;;;4.53;3.10;;;30.80;89.70;;;;;;5065633;28;20197;-33
2022/06/14 14:08:22;;;;;;;3.90;3.03;;;30.90;87.10;;;;;;5052742;28;20177;-33
2022/06/14 14:10:59;;;;;;;3.30;2.85;;;30.90;87.10;;;;;;5052802;28;20212;-33
2022/06/14 14:13:43;;;;;;;3.65;2.58;;;30.80;88.00;;;;;;5052747;28;20553;-33
2022/06/14 14:19:04;;;;;;;3.55;2.72;;;30.90;88.30;;;;;;5090853;28;20282;-41
2022/06/14 14:21:41;;;;;;;4.82;2.92;;;31.10;87.70;;;;;;5097493;28;20200;-38
2022/06/14 14:24:34;;;;;;;4.78;2.55;;;31.30;86.00;;;;;;5084932;28;20212;-37